Suan — DF5510 — position and weather

sailwx.info

Track history (hours):
 
Tides and Currents Weather Stations Pressure Air Temp Water Temp Dewpoint Dewpoint Depression Visibility Wind Speed Wind Dir Waves Ship Positions

Suan

Last reported at 2017-Oct-13 17:55 UTC. Time now 2017-Oct-17 04:20 UTC.
Position N 32°43' W 117°14'.

Length 13 m.

Type: Sailing vessel. MMSI: 211465320.

Date/timePositionNaut miles runAvg speedWind from/ knotsBaromVisibWave heightAir tempDewpointWater temp
2017-Oct-13 17:55N 32°43' W 117°14'1 1.6
2017-Oct-13 17:30N 32°42' W 117°14'2 4.9
2017-Oct-13 17:00N 32°40' W 117°13'0 0.1
2017-Oct-13 13:13N 32°40' W 117°13'0 0.0
2017-Oct-13 12:58N 32°40' W 117°13'2 4.1
2017-Oct-13 12:30N 32°39' W 117°15'3 5.8
2017-Oct-13 12:00N 32°39' W 117°18'3 5.7
2017-Oct-13 11:30N 32°40' W 117°21'3 5.7
2017-Oct-13 11:00N 32°41' W 117°24'3 5.6
2017-Oct-13 10:31N 32°42' W 117°27'3 5.5
2017-Oct-13 10:01N 32°44' W 117°30'3 5.5
2017-Oct-13 09:30N 32°45' W 117°33'3 5.3
2017-Oct-13 09:00N 32°46' W 117°36'3 5.3
2017-Oct-13 08:30N 32°47' W 117°39'3 5.6
2017-Oct-13 08:00N 32°49' W 117°42'3 5.9
2017-Oct-13 07:30N 32°50' W 117°45'2 4.0
2017-Oct-13 06:59N 32°50' W 117°47'0 0.8
2017-Oct-13 06:30N 32°51' W 117°48'0 0.9
2017-Oct-13 06:00N 32°51' W 117°48'1 1.8
2017-Oct-13 05:30N 32°52' W 117°49'1 1.7
2017-Oct-13 05:00N 32°52' W 117°50'1 1.8
2017-Oct-13 04:30N 32°53' W 117°50'1 2.3
2017-Oct-13 04:00N 32°54' W 117°51'1 3.0
2017-Oct-13 03:30N 32°55' W 117°52'2 3.4
2017-Oct-13 03:00N 32°56' W 117°54'2 3.7
2017-Oct-13 02:30N 32°57' W 117°55'2 4.0
2017-Oct-13 02:00N 32°58' W 117°57'2 3.5
2017-Oct-13 01:30N 32°60' W 117°59'2 3.7
2017-Oct-13 00:59N 33°01' W 118°01'2 4.0
2017-Oct-13 00:31N 33°02' W 118°02'2 3.9
2017-Oct-13 00:00N 33°04' W 118°04'33 1.3
2017-Oct-11 22:48N 33°26' W 118°34'2 5.6
2017-Oct-11 22:25N 33°27' W 118°36'2 4.2
2017-Oct-11 21:52N 33°29' W 118°36'4 4.4
2017-Oct-11 21:03N 33°33' W 118°34'0 3.5
2017-Oct-11 21:00N 33°33' W 118°34'2 3.7
2017-Oct-11 20:30N 33°35' W 118°34'4 4.7
2017-Oct-11 19:43N 33°38' W 118°32'2 5.0
2017-Oct-11 19:14N 33°40' W 118°32'4 3.5
2017-Oct-11 18:08N 33°44' W 118°32'0 2.5
2017-Oct-11 18:00N 33°45' W 118°32'2 4.0
2017-Oct-11 17:30N 33°46' W 118°31'2 4.4
2017-Oct-11 16:59N 33°49' W 118°30'  
2017-Oct-05 17:12N 33°55' W 118°39'1 5.6
2017-Oct-05 16:57N 33°54' W 118°41'6 4.3
2017-Oct-05 15:30N 33°53' W 118°48'2 3.2
2017-Oct-05 15:00N 33°54' W 118°50'1 2.2
2017-Oct-05 14:30N 33°53' W 118°51'1 2.2
2017-Oct-05 14:01N 33°53' W 118°52'1 2.4
2017-Oct-05 13:30N 33°53' W 118°53'1 2.9
2017-Oct-05 13:00N 33°54' W 118°54'2 3.0
2017-Oct-05 12:30N 33°55' W 118°55'2 3.2
2017-Oct-05 12:00N 33°57' W 118°56'2 2.7
2017-Oct-05 11:27N 33°58' W 118°57'1 2.9
2017-Oct-05 11:00N 33°59' W 118°58'2 3.6
2017-Oct-05 10:30N 33°60' W 119°00'3 5.6
2017-Oct-05 09:54N 34°00' W 119°04'3 5.6
2017-Oct-05 09:27N 34°00' W 119°07'3 5.8
2017-Oct-05 09:00N 34°00' W 119°11'2 3.6
2017-Oct-05 08:30N 34°00' W 119°13'1 2.5
2017-Oct-05 08:00N 34°00' W 119°14'1 2.4
2017-Oct-05 07:30N 34°01' W 119°16'2 3.6
2017-Oct-05 07:00N 34°02' W 119°18'2 3.8
2017-Oct-05 06:30N 34°02' W 119°20'2 3.3
2017-Oct-05 06:00N 34°03' W 119°22'2 3.7
2017-Oct-05 05:30N 34°03' W 119°24'2 4.7
2017-Oct-05 05:01N 34°04' W 119°26'2 3.9
2017-Oct-05 04:31N 34°04' W 119°29'2 4.6
2017-Oct-05 03:59N 34°04' W 119°32'2 4.7
2017-Oct-05 03:30N 34°04' W 119°34'2 4.1
2017-Oct-05 02:54N 34°04' W 119°37'2 5.0
2017-Oct-05 02:25N 34°04' W 119°40'2 5.5
2017-Oct-05 02:00N 34°04' W 119°43'3 5.8
2017-Oct-05 01:30N 34°05' W 119°46'3 6.0
2017-Oct-05 00:58N 34°05' W 119°50'4 5.9
2017-Oct-05 00:22N 34°05' W 119°54'2 4.8
2017-Oct-04 23:54N 34°05' W 119°57'2 4.9
2017-Oct-04 23:29N 34°06' W 119°60'3 5.6
2017-Oct-04 22:58N 34°06' W 120°03'3 5.0
2017-Oct-04 22:26N 34°06' W 120°06'1 2.5
2017-Oct-04 21:57N 34°06' W 120°08'2 3.6
2017-Oct-04 21:27N 34°07' W 120°10'2 4.2
2017-Oct-04 21:00N 34°08' W 120°12'3 4.8
2017-Oct-04 20:20N 34°09' W 120°15'1 4.4
2017-Oct-04 20:00N 34°10' W 120°17'3 4.4
2017-Oct-04 19:18N 34°11' W 120°20'2 4.1
2017-Oct-04 18:53N 34°12' W 120°22'2 4.3
2017-Oct-04 18:28N 34°13' W 120°24'2 5.0
2017-Oct-04 17:58N 34°14' W 120°26'3 5.3
2017-Oct-04 17:28N 34°16' W 120°29'3 5.8
2017-Oct-04 17:00N 34°17' W 120°32'3 5.6
2017-Oct-04 16:30N 34°19' W 120°34'3 5.2
2017-Oct-04 16:00N 34°21' W 120°37'3 5.7
2017-Oct-04 15:28N 34°23' W 120°39'3 5.4
2017-Oct-04 15:00N 34°25' W 120°41'2 4.5
2017-Oct-04 14:30N 34°27' W 120°43'2 4.9
2017-Oct-04 14:00N 34°28' W 120°45'2 5.0
2017-Oct-04 13:30N 34°30' W 120°47'2 4.3
2017-Oct-04 13:00N 34°32' W 120°49'2 4.2
2017-Oct-04 12:30N 34°33' W 120°51'2 4.6
2017-Oct-04 12:00N 34°35' W 120°53'2 4.9
2017-Oct-04 11:30N 34°36' W 120°55'2 4.9
2017-Oct-04 11:00N 34°38' W 120°57'3 5.2
2017-Oct-04 10:30N 34°40' W 120°59'3 5.3
2017-Oct-04 10:01N 34°42' W 121°02'3 5.5
2017-Oct-04 09:30N 34°44' W 121°04'5 4.9
2017-Oct-04 08:29N 34°48' W 121°08'2 4.6
2017-Oct-04 07:59N 34°49' W 121°10'2 4.3
2017-Oct-04 07:29N 34°51' W 121°11'2 4.9
2017-Oct-04 07:00N 34°53' W 121°10'2 4.3
2017-Oct-04 06:30N 34°55' W 121°11'2 4.8
2017-Oct-04 06:00N 34°58' W 121°12'2 4.5
2017-Oct-04 05:30N 34°60' W 121°13'2 4.8
2017-Oct-04 05:00N 35°02' W 121°15'3 5.0
2017-Oct-04 04:30N 35°04' W 121°16'2 4.7
2017-Oct-04 03:59N 35°06' W 121°18'2 5.0
2017-Oct-04 03:30N 35°07' W 121°20'3 5.4
2017-Oct-04 03:00N 35°10' W 121°22'  
Track history (hours):
 
Tides and Currents Weather Stations Pressure Air Temp Water Temp Dewpoint Dewpoint Depression Visibility Wind Speed Wind Dir Waves Ship Positions

Suan

Last reported at 2017-Oct-13 17:55 UTC. Time now 2017-Oct-17 04:20 UTC.
Position N 32°43' W 117°14'.

Length 13 m.

Type: Sailing vessel. MMSI: 211465320.

Date/timePositionNaut miles runAvg speedWind from/ knotsBaromVisibWave heightAir tempDewpointWater temp
2017-Oct-13 17:55N 32°43' W 117°14'1 1.6
2017-Oct-13 17:30N 32°42' W 117°14'2 4.9
2017-Oct-13 17:00N 32°40' W 117°13'0 0.1
2017-Oct-13 13:13N 32°40' W 117°13'0 0.0
2017-Oct-13 12:58N 32°40' W 117°13'2 4.1
2017-Oct-13 12:30N 32°39' W 117°15'3 5.8
2017-Oct-13 12:00N 32°39' W 117°18'3 5.7
2017-Oct-13 11:30N 32°40' W 117°21'3 5.7
2017-Oct-13 11:00N 32°41' W 117°24'3 5.6
2017-Oct-13 10:31N 32°42' W 117°27'3 5.5
2017-Oct-13 10:01N 32°44' W 117°30'3 5.5
2017-Oct-13 09:30N 32°45' W 117°33'3 5.3
2017-Oct-13 09:00N 32°46' W 117°36'3 5.3
2017-Oct-13 08:30N 32°47' W 117°39'3 5.6
2017-Oct-13 08:00N 32°49' W 117°42'3 5.9
2017-Oct-13 07:30N 32°50' W 117°45'2 4.0
2017-Oct-13 06:59N 32°50' W 117°47'0 0.8
2017-Oct-13 06:30N 32°51' W 117°48'0 0.9
2017-Oct-13 06:00N 32°51' W 117°48'1 1.8
2017-Oct-13 05:30N 32°52' W 117°49'1 1.7
2017-Oct-13 05:00N 32°52' W 117°50'1 1.8
2017-Oct-13 04:30N 32°53' W 117°50'1 2.3
2017-Oct-13 04:00N 32°54' W 117°51'1 3.0
2017-Oct-13 03:30N 32°55' W 117°52'2 3.4
2017-Oct-13 03:00N 32°56' W 117°54'2 3.7
2017-Oct-13 02:30N 32°57' W 117°55'2 4.0
2017-Oct-13 02:00N 32°58' W 117°57'2 3.5
2017-Oct-13 01:30N 32°60' W 117°59'2 3.7
2017-Oct-13 00:59N 33°01' W 118°01'2 4.0
2017-Oct-13 00:31N 33°02' W 118°02'2 3.9
2017-Oct-13 00:00N 33°04' W 118°04'33 1.3
2017-Oct-11 22:48N 33°26' W 118°34'2 5.6
2017-Oct-11 22:25N 33°27' W 118°36'2 4.2
2017-Oct-11 21:52N 33°29' W 118°36'4 4.4
2017-Oct-11 21:03N 33°33' W 118°34'0 3.5
2017-Oct-11 21:00N 33°33' W 118°34'2 3.7
2017-Oct-11 20:30N 33°35' W 118°34'4 4.7
2017-Oct-11 19:43N 33°38' W 118°32'2 5.0
2017-Oct-11 19:14N 33°40' W 118°32'4 3.5
2017-Oct-11 18:08N 33°44' W 118°32'0 2.5
2017-Oct-11 18:00N 33°45' W 118°32'2 4.0
2017-Oct-11 17:30N 33°46' W 118°31'2 4.4
2017-Oct-11 16:59N 33°49' W 118°30'  
2017-Oct-05 17:12N 33°55' W 118°39'1 5.6
2017-Oct-05 16:57N 33°54' W 118°41'6 4.3
2017-Oct-05 15:30N 33°53' W 118°48'2 3.2
2017-Oct-05 15:00N 33°54' W 118°50'1 2.2
2017-Oct-05 14:30N 33°53' W 118°51'1 2.2
2017-Oct-05 14:01N 33°53' W 118°52'1 2.4
2017-Oct-05 13:30N 33°53' W 118°53'1 2.9
2017-Oct-05 13:00N 33°54' W 118°54'2 3.0
2017-Oct-05 12:30N 33°55' W 118°55'2 3.2
2017-Oct-05 12:00N 33°57' W 118°56'2 2.7
2017-Oct-05 11:27N 33°58' W 118°57'1 2.9
2017-Oct-05 11:00N 33°59' W 118°58'2 3.6
2017-Oct-05 10:30N 33°60' W 119°00'3 5.6
2017-Oct-05 09:54N 34°00' W 119°04'3 5.6
2017-Oct-05 09:27N 34°00' W 119°07'3 5.8
2017-Oct-05 09:00N 34°00' W 119°11'2 3.6
2017-Oct-05 08:30N 34°00' W 119°13'1 2.5
2017-Oct-05 08:00N 34°00' W 119°14'1 2.4
2017-Oct-05 07:30N 34°01' W 119°16'2 3.6
2017-Oct-05 07:00N 34°02' W 119°18'2 3.8
2017-Oct-05 06:30N 34°02' W 119°20'2 3.3
2017-Oct-05 06:00N 34°03' W 119°22'2 3.7
2017-Oct-05 05:30N 34°03' W 119°24'2 4.7
2017-Oct-05 05:01N 34°04' W 119°26'2 3.9
2017-Oct-05 04:31N 34°04' W 119°29'2 4.6
2017-Oct-05 03:59N 34°04' W 119°32'2 4.7
2017-Oct-05 03:30N 34°04' W 119°34'2 4.1
2017-Oct-05 02:54N 34°04' W 119°37'2 5.0
2017-Oct-05 02:25N 34°04' W 119°40'2 5.5
2017-Oct-05 02:00N 34°04' W 119°43'3 5.8
2017-Oct-05 01:30N 34°05' W 119°46'3 6.0
2017-Oct-05 00:58N 34°05' W 119°50'4 5.9
2017-Oct-05 00:22N 34°05' W 119°54'2 4.8
2017-Oct-04 23:54N 34°05' W 119°57'2 4.9
2017-Oct-04 23:29N 34°06' W 119°60'3 5.6
2017-Oct-04 22:58N 34°06' W 120°03'3 5.0
2017-Oct-04 22:26N 34°06' W 120°06'1 2.5
2017-Oct-04 21:57N 34°06' W 120°08'2 3.6
2017-Oct-04 21:27N 34°07' W 120°10'2 4.2
2017-Oct-04 21:00N 34°08' W 120°12'3 4.8
2017-Oct-04 20:20N 34°09' W 120°15'1 4.4
2017-Oct-04 20:00N 34°10' W 120°17'3 4.4
2017-Oct-04 19:18N 34°11' W 120°20'2 4.1
2017-Oct-04 18:53N 34°12' W 120°22'2 4.3
2017-Oct-04 18:28N 34°13' W 120°24'2 5.0
2017-Oct-04 17:58N 34°14' W 120°26'3 5.3
2017-Oct-04 17:28N 34°16' W 120°29'3 5.8
2017-Oct-04 17:00N 34°17' W 120°32'3 5.6
2017-Oct-04 16:30N 34°19' W 120°34'3 5.2
2017-Oct-04 16:00N 34°21' W 120°37'3 5.7
2017-Oct-04 15:28N 34°23' W 120°39'3 5.4
2017-Oct-04 15:00N 34°25' W 120°41'2 4.5
2017-Oct-04 14:30N 34°27' W 120°43'2 4.9
2017-Oct-04 14:00N 34°28' W 120°45'2 5.0
2017-Oct-04 13:30N 34°30' W 120°47'2 4.3
2017-Oct-04 13:00N 34°32' W 120°49'2 4.2
2017-Oct-04 12:30N 34°33' W 120°51'2 4.6
2017-Oct-04 12:00N 34°35' W 120°53'2 4.9
2017-Oct-04 11:30N 34°36' W 120°55'2 4.9
2017-Oct-04 11:00N 34°38' W 120°57'3 5.2
2017-Oct-04 10:30N 34°40' W 120°59'3 5.3
2017-Oct-04 10:01N 34°42' W 121°02'3 5.5
2017-Oct-04 09:30N 34°44' W 121°04'5 4.9
2017-Oct-04 08:29N 34°48' W 121°08'2 4.6
2017-Oct-04 07:59N 34°49' W 121°10'2 4.3
2017-Oct-04 07:29N 34°51' W 121°11'2 4.9
2017-Oct-04 07:00N 34°53' W 121°10'2 4.3
2017-Oct-04 06:30N 34°55' W 121°11'2 4.8
2017-Oct-04 06:00N 34°58' W 121°12'2 4.5
2017-Oct-04 05:30N 34°60' W 121°13'2 4.8
2017-Oct-04 05:00N 35°02' W 121°15'3 5.0
2017-Oct-04 04:30N 35°04' W 121°16'2 4.7
2017-Oct-04 03:59N 35°06' W 121°18'2 5.0
2017-Oct-04 03:30N 35°07' W 121°20'3 5.4
2017-Oct-04 03:00N 35°10' W 121°22'  

Dump ship's entire track history